PWSweather.com
Personal Weather Stations
Station Observations
MAKAWAOWX1
Up Country Maui, Makawao, HI 96768

Up Country MauiMakawao, HI 96768

Lat: 20.856944, Lon: -156.3149667

Elevation: 1500

Station Type: Davis Vantage Pro

www.dwayneyamato@hawaiiantel.net

High Low Average
Temperature 78.8°F26.0°F 64.5°F18.1°F 69.5°F20.8°F
Dew Point 67.8°F19.9°F 60.0°F15.6°F 64.1°F17.8°F
Winds 14.8 mph ENE23.8 mph ENE Calm Calm 7.8 mph 12.6 mph
Wind Gusts 27.0 mph43.5 mph -- 11.6 mph18.7 mph
Humidity 95% 65% 84%
Pressure 30.05 in1017.60 in 29.96 in1014.60 in -
Precipitation 1.69 in42.90 in - -
Hour Temp Dew Point Humidity Winds Wind Gusts Pressure Precip Precip Rate Daily Precip Total
12:00 AM 66.7°F19.3°C 64.3°F17.9°C 92% 4.3 mph E6.9 kmh E 10.0 mph16.1 kmh 30.04 in1017.3 mb 0.01 in0.3 mm 0.00 in/hr0.0 mm/hr 0.01 in0.3 mm
12:10 AM 66.5°F19.2°C 64.1°F17.8°C 92% 8.7 mph ENE14.0 kmh ENE 14.0 mph22.5 kmh 30.03 in1016.9 mb 0.01 in0.3 mm 0.06 in/hr1.5 mm/hr 0.01 in0.3 mm
12:20 AM 66.6°F19.2°C 64.2°F17.9°C 92% 5.7 mph E9.2 kmh E 9.0 mph14.5 kmh 30.03 in1016.9 mb 0.02 in0.5 mm 0.12 in/hr3.0 mm/hr 0.03 in0.8 mm
12:30 AM 66.4°F19.1°C 63.7°F17.6°C 91% 4.1 mph E6.6 kmh E 8.0 mph12.9 kmh 30.03 in1016.9 mb 0.02 in0.5 mm 0.12 in/hr3.0 mm/hr 0.05 in1.3 mm
12:40 AM 66.3°F19.1°C 63.9°F17.7°C 92% 6.1 mph E9.8 kmh E 8.0 mph12.9 kmh 30.04 in1017.3 mb 0.02 in0.5 mm 0.12 in/hr3.0 mm/hr 0.07 in1.8 mm
12:50 AM 66.4°F19.1°C 64.0°F17.8°C 92% 3.6 mph E5.8 kmh E 8.0 mph12.9 kmh 30.03 in1016.9 mb 0.04 in1.0 mm 0.24 in/hr6.1 mm/hr 0.11 in2.8 mm
01:00 AM 66.3°F19.1°C 63.9°F17.7°C 92% 5.5 mph ENE8.9 kmh ENE 8.0 mph12.9 kmh 30.03 in1016.9 mb 0.03 in0.8 mm 0.04 in/hr1.0 mm/hr 0.13 in3.3 mm
01:10 AM 66.3°F19.1°C 63.6°F17.6°C 91% 3.6 mph E5.8 kmh E 7.0 mph11.3 kmh 30.03 in1016.9 mb 0.06 in1.5 mm 0.36 in/hr9.1 mm/hr 0.19 in4.8 mm
01:20 AM 66.0°F18.9°C 63.6°F17.6°C 92% 2.9 mph ESE4.7 kmh ESE 4.0 mph6.4 kmh 30.03 in1016.9 mb 0.08 in2.0 mm 0.48 in/hr12.2 mm/hr 0.27 in6.9 mm
01:30 AM 65.7°F18.7°C 63.3°F17.4°C 92% 1.8 mph ESE2.9 kmh ESE 6.0 mph9.7 kmh 30.03 in1016.9 mb 0.01 in0.3 mm 0.06 in/hr1.5 mm/hr 0.28 in7.1 mm
01:40 AM 65.7°F18.7°C 63.6°F17.6°C 93% 5.6 mph E9.0 kmh E 6.0 mph9.7 kmh 30.02 in1016.6 mb 0.01 in0.3 mm 0.06 in/hr1.5 mm/hr 0.29 in7.4 mm
01:50 AM 66.1°F18.9°C 64.0°F17.8°C 93% 7.0 mph ENE11.3 kmh ENE 10.0 mph16.1 kmh 30.02 in1016.6 mb 0.05 in1.3 mm 0.30 in/hr7.6 mm/hr 0.34 in8.6 mm
02:00 AM 65.9°F18.8°C 63.2°F17.3°C 91% 4.8 mph E7.7 kmh E 7.0 mph11.3 kmh 30.01 in1016.3 mb 0.02 in0.5 mm 0.02 in/hr0.5 mm/hr 0.36 in9.1 mm
02:10 AM 65.8°F18.8°C 63.1°F17.3°C 91% 3.9 mph NE6.3 kmh NE 7.0 mph11.3 kmh 30.01 in1016.3 mb 0.03 in0.8 mm 0.18 in/hr4.6 mm/hr 0.39 in9.9 mm
02:20 AM 65.3°F18.5°C 62.3°F16.8°C 90% 6.9 mph ENE11.1 kmh ENE 13.0 mph20.9 kmh 30.00 in1015.9 mb 0.03 in0.8 mm 0.18 in/hr4.6 mm/hr 0.42 in10.7 mm
02:30 AM 65.1°F18.4°C 62.1°F16.7°C 90% 4.8 mph ESE7.7 kmh ESE 7.0 mph11.3 kmh 30.00 in1015.9 mb 0.03 in0.8 mm 0.18 in/hr4.6 mm/hr 0.45 in11.4 mm
02:40 AM 65.0°F18.3°C 62.3°F16.8°C 91% 3.7 mph NE6.0 kmh NE 10.0 mph16.1 kmh 30.00 in1015.9 mb 0.06 in1.5 mm 0.36 in/hr9.1 mm/hr 0.51 in13.0 mm
02:50 AM 64.8°F18.2°C 62.4°F16.9°C 92% 3.6 mph E5.8 kmh E 11.0 mph17.7 kmh 29.99 in1015.6 mb 0.08 in2.0 mm 0.48 in/hr12.2 mm/hr 0.58 in14.7 mm
03:00 AM 64.8°F18.2°C 62.4°F16.9°C 92% 7.0 mph E11.3 kmh E 11.0 mph17.7 kmh 29.99 in1015.6 mb 0.09 in2.3 mm 0.11 in/hr2.8 mm/hr 0.66 in16.8 mm
03:10 AM 65.0°F18.3°C 62.9°F17.2°C 93% 7.4 mph E11.9 kmh E 10.0 mph16.1 kmh 29.99 in1015.6 mb 0.03 in0.8 mm 0.18 in/hr4.6 mm/hr 0.68 in17.3 mm
03:20 AM 65.3°F18.5°C 63.2°F17.3°C 93% 8.1 mph ENE13.0 kmh ENE 9.0 mph14.5 kmh 29.99 in1015.6 mb 0.05 in1.3 mm 0.30 in/hr7.6 mm/hr 0.74 in18.8 mm
03:30 AM 65.2°F18.4°C 62.8°F17.1°C 92% 10.3 mph NE16.6 kmh NE 14.0 mph22.5 kmh 29.99 in1015.6 mb 0.06 in1.5 mm 0.36 in/hr9.1 mm/hr 0.80 in20.3 mm
03:40 AM 65.2°F18.4°C 62.8°F17.1°C 92% 8.5 mph E13.7 kmh E 15.0 mph24.1 kmh 29.99 in1015.6 mb 0.05 in1.3 mm 0.30 in/hr7.6 mm/hr 0.84 in21.3 mm
03:50 AM 65.1°F18.4°C 62.1°F16.7°C 90% 9.1 mph ENE14.6 kmh ENE 13.0 mph20.9 kmh 30.00 in1015.9 mb 0.03 in0.8 mm 0.18 in/hr4.6 mm/hr 0.87 in22.1 mm
04:00 AM 64.9°F18.3°C 62.2°F16.8°C 91% 5.7 mph ENE9.2 kmh ENE 11.0 mph17.7 kmh 29.99 in1015.6 mb 0.00 in0.0 mm 0.00 in/hr0.0 mm/hr 0.87 in22.1 mm
04:10 AM 65.1°F18.4°C 62.4°F16.9°C 91% 4.1 mph E6.6 kmh E 8.0 mph12.9 kmh 30.00 in1015.9 mb 0.00 in0.0 mm 0.00 in/hr0.0 mm/hr 0.87 in22.1 mm
04:20 AM 65.2°F18.4°C 62.5°F16.9°C 91% 4.9 mph E7.9 kmh E 9.0 mph14.5 kmh 29.99 in1015.6 mb 0.02 in0.5 mm 0.12 in/hr3.0 mm/hr 0.89 in22.6 mm
04:30 AM 65.0°F18.3°C 62.6°F17.0°C 92% 5.0 mph ENE8.0 kmh ENE 8.0 mph12.9 kmh 29.99 in1015.6 mb 0.02 in0.5 mm 0.12 in/hr3.0 mm/hr 0.91 in23.1 mm
04:40 AM 64.9°F18.3°C 62.5°F16.9°C 92% 4.3 mph E6.9 kmh E 9.0 mph14.5 kmh 29.99 in1015.6 mb 0.01 in0.3 mm 0.06 in/hr1.5 mm/hr 0.92 in23.4 mm
04:50 AM 64.7°F18.2°C 62.0°F16.7°C 91% 5.0 mph E8.0 kmh E 7.0 mph11.3 kmh 30.01 in1016.3 mb 0.03 in0.8 mm 0.18 in/hr4.6 mm/hr 0.95 in24.1 mm
05:00 AM 64.6°F18.1°C 62.2°F16.8°C 92% 4.6 mph E7.4 kmh E 5.0 mph8.0 kmh 30.00 in1015.9 mb 0.04 in1.0 mm 0.05 in/hr1.3 mm/hr 1.00 in25.4 mm
05:10 AM 64.8°F18.2°C 62.4°F16.9°C 92% 6.1 mph E9.8 kmh E 9.0 mph14.5 kmh 30.00 in1015.9 mb 0.02 in0.5 mm 0.12 in/hr3.0 mm/hr 1.01 in25.7 mm
05:20 AM 65.0°F18.3°C 62.9°F17.2°C 93% 7.0 mph E11.3 kmh E 11.0 mph17.7 kmh 30.01 in1016.3 mb 0.11 in2.8 mm 0.66 in/hr16.8 mm/hr 1.12 in28.4 mm
05:30 AM 64.8°F18.2°C 62.4°F16.9°C 92% 5.0 mph E8.0 kmh E 7.0 mph11.3 kmh 30.01 in1016.3 mb 0.18 in4.6 mm 1.08 in/hr27.4 mm/hr 1.29 in32.8 mm
05:40 AM 64.5°F18.1°C 62.4°F16.9°C 93% 6.9 mph E11.1 kmh E 10.0 mph16.1 kmh 30.02 in1016.6 mb 0.06 in1.5 mm 0.36 in/hr9.1 mm/hr 1.33 in33.8 mm
05:50 AM 64.6°F18.1°C 62.9°F17.2°C 94% 2.8 mph E4.5 kmh E 5.0 mph8.0 kmh 30.02 in1016.6 mb 0.05 in1.3 mm 0.30 in/hr7.6 mm/hr 1.37 in34.8 mm
06:00 AM 65.2°F18.4°C 63.4°F17.4°C 94% 4.0 mph ENE6.4 kmh ENE 7.0 mph11.3 kmh 30.02 in1016.6 mb 0.10 in2.5 mm 0.12 in/hr3.0 mm/hr 1.47 in37.3 mm
06:10 AM 65.3°F18.5°C 63.5°F17.5°C 94% Calm Calm -- 30.03 in1016.9 mb 0.05 in1.3 mm 0.30 in/hr7.6 mm/hr 1.52 in38.6 mm
06:20 AM 65.2°F18.4°C 63.4°F17.4°C 94% Calm Calm -- 30.03 in1016.9 mb 0.01 in0.3 mm 0.06 in/hr1.5 mm/hr 1.53 in38.9 mm
06:30 AM 65.0°F18.3°C 63.2°F17.3°C 94% Calm Calm -- 30.03 in1016.9 mb 0.03 in0.8 mm 0.18 in/hr4.6 mm/hr 1.55 in39.4 mm
06:40 AM 65.5°F18.6°C 64.0°F17.8°C 95% Calm Calm -- 30.04 in1017.3 mb 0.03 in0.8 mm 0.18 in/hr4.6 mm/hr 1.58 in40.1 mm
06:50 AM 66.0°F18.9°C 64.5°F18.1°C 95% Calm Calm -- 30.04 in1017.3 mb 0.00 in0.0 mm 0.00 in/hr0.0 mm/hr 1.58 in40.1 mm
07:00 AM 65.9°F18.8°C 63.9°F17.7°C 93% 6.0 mph E9.7 kmh E 10.0 mph16.1 kmh 30.04 in1017.3 mb 0.00 in0.0 mm 0.00 in/hr0.0 mm/hr 1.58 in40.1 mm
07:10 AM 65.9°F18.8°C 63.5°F17.5°C 92% 7.0 mph E11.3 kmh E 10.0 mph16.1 kmh 30.04 in1017.3 mb 0.00 in0.0 mm 0.00 in/hr0.0 mm/hr 1.58 in40.1 mm
07:20 AM 66.0°F18.9°C 63.6°F17.6°C 92% 3.9 mph NE6.3 kmh NE 7.0 mph11.3 kmh 30.04 in1017.3 mb 0.00 in0.0 mm 0.00 in/hr0.0 mm/hr 1.58 in40.1 mm
07:30 AM 66.3°F19.1°C 63.6°F17.6°C 91% 8.0 mph E12.9 kmh E 13.0 mph20.9 kmh 30.04 in1017.3 mb 0.00 in0.0 mm 0.00 in/hr0.0 mm/hr 1.58 in40.1 mm
07:40 AM 66.7°F19.3°C 63.4°F17.4°C 89% 5.8 mph NE9.3 kmh NE 8.0 mph12.9 kmh 30.04 in1017.3 mb 0.00 in0.0 mm 0.00 in/hr0.0 mm/hr 1.58 in40.1 mm
07:50 AM 67.4°F19.7°C 63.4°F17.4°C 87% 7.0 mph E11.3 kmh E 8.0 mph12.9 kmh 30.04 in1017.3 mb 0.00 in0.0 mm 0.00 in/hr0.0 mm/hr 1.58 in40.1 mm
08:00 AM 68.3°F20.2°C 64.6°F18.1°C 88% 6.2 mph ENE10.0 kmh ENE 13.0 mph20.9 kmh 30.04 in1017.3 mb 0.00 in0.0 mm 0.00 in/hr0.0 mm/hr 1.58 in40.1 mm
08:10 AM 69.6°F20.9°C 65.5°F18.6°C 87% 10.7 mph ENE17.2 kmh ENE 16.0 mph25.7 kmh 30.04 in1017.3 mb 0.00 in0.0 mm 0.00 in/hr0.0 mm/hr 1.58 in40.1 mm
08:20 AM 70.6°F21.4°C 65.5°F18.6°C 84% 10.5 mph ESE16.9 kmh ESE 12.0 mph19.3 kmh 30.04 in1017.3 mb 0.00 in0.0 mm 0.00 in/hr0.0 mm/hr 1.58 in40.1 mm
08:30 AM 71.4°F21.9°C 66.0°F18.9°C 83% 8.4 mph E13.5 kmh E 13.0 mph20.9 kmh 30.04 in1017.3 mb 0.00 in0.0 mm 0.00 in/hr0.0 mm/hr 1.58 in40.1 mm
08:40 AM 72.2°F22.3°C 66.1°F18.9°C 81% 6.9 mph ENE11.1 kmh ENE 17.0 mph27.4 kmh 30.05 in1017.6 mb 0.00 in0.0 mm 0.00 in/hr0.0 mm/hr 1.58 in40.1 mm
08:50 AM 73.0°F22.8°C 66.8°F19.3°C 81% 6.5 mph ENE10.5 kmh ENE 7.0 mph11.3 kmh 30.05 in1017.6 mb 0.00 in0.0 mm 0.00 in/hr0.0 mm/hr 1.58 in40.1 mm
09:00 AM 73.7°F23.2°C 65.7°F18.7°C 76% 6.1 mph SE9.8 kmh SE 13.0 mph20.9 kmh 30.04 in1017.3 mb 0.00 in0.0 mm 0.00 in/hr0.0 mm/hr 1.58 in40.1 mm
09:10 AM 73.9°F23.3°C 65.5°F18.6°C 75% 7.7 mph E12.4 kmh E 12.0 mph19.3 kmh 30.04 in1017.3 mb 0.00 in0.0 mm 0.00 in/hr0.0 mm/hr 1.58 in40.1 mm
09:20 AM 74.4°F23.6°C 66.7°F19.3°C 77% 8.7 mph ENE14.0 kmh ENE 11.0 mph17.7 kmh 30.04 in1017.3 mb 0.00 in0.0 mm 0.00 in/hr0.0 mm/hr 1.58 in40.1 mm
09:30 AM 74.7°F23.7°C 67.0°F19.4°C 77% 9.6 mph ENE15.4 kmh ENE 12.0 mph19.3 kmh 30.04 in1017.3 mb 0.00 in0.0 mm 0.00 in/hr0.0 mm/hr 1.58 in40.1 mm
09:40 AM 74.6°F23.7°C 67.0°F19.4°C 77% 11.1 mph ESE17.9 kmh ESE 18.0 mph29.0 kmh 30.03 in1016.9 mb 0.00 in0.0 mm 0.00 in/hr0.0 mm/hr 1.58 in40.1 mm
09:50 AM 74.6°F23.7°C 67.6°F19.8°C 79% 7.9 mph E12.7 kmh E 14.0 mph22.5 kmh 30.03 in1016.9 mb 0.00 in0.0 mm 0.00 in/hr0.0 mm/hr 1.58 in40.1 mm
10:00 AM 74.2°F23.4°C 66.9°F19.4°C 78% 12.7 mph E20.4 kmh E 24.0 mph38.6 kmh 30.03 in1016.9 mb 0.00 in0.0 mm 0.00 in/hr0.0 mm/hr 1.58 in40.1 mm
10:10 AM 74.3°F23.5°C 67.4°F19.7°C 79% 6.3 mph E10.1 kmh E 9.0 mph14.5 kmh 30.03 in1016.9 mb 0.00 in0.0 mm 0.00 in/hr0.0 mm/hr 1.58 in40.1 mm
10:20 AM 74.3°F23.5°C 67.0°F19.4°C 78% 8.1 mph E13.0 kmh E 11.0 mph17.7 kmh 30.03 in1016.9 mb 0.00 in0.0 mm 0.00 in/hr0.0 mm/hr 1.58 in40.1 mm
10:30 AM 74.9°F23.8°C 67.6°F19.8°C 78% 10.5 mph E16.9 kmh E 20.0 mph32.2 kmh 30.04 in1017.3 mb 0.00 in0.0 mm 0.00 in/hr0.0 mm/hr 1.58 in40.1 mm
10:40 AM 74.9°F23.8°C 66.9°F19.4°C 76% 10.1 mph ENE16.3 kmh ENE 15.0 mph24.1 kmh 30.04 in1017.3 mb 0.00 in0.0 mm 0.00 in/hr0.0 mm/hr 1.58 in40.1 mm
10:50 AM 75.8°F24.3°C 66.9°F19.4°C 74% 11.4 mph E18.3 kmh E 19.0 mph30.6 kmh 30.03 in1016.9 mb 0.00 in0.0 mm 0.00 in/hr0.0 mm/hr 1.58 in40.1 mm
11:00 AM 75.8°F24.3°C 66.1°F18.9°C 72% 9.6 mph E15.4 kmh E 15.0 mph24.1 kmh 30.04 in1017.3 mb 0.00 in0.0 mm 0.00 in/hr0.0 mm/hr 1.58 in40.1 mm
11:10 AM 76.5°F24.7°C 66.0°F18.9°C 70% 12.7 mph ENE20.4 kmh ENE 16.0 mph25.7 kmh 30.04 in1017.3 mb 0.00 in0.0 mm 0.00 in/hr0.0 mm/hr 1.58 in40.1 mm
11:20 AM 77.3°F25.2°C 67.2°F19.6°C 71% 9.8 mph ENE15.8 kmh ENE 15.0 mph24.1 kmh 30.03 in1016.9 mb 0.00 in0.0 mm 0.00 in/hr0.0 mm/hr 1.58 in40.1 mm
11:30 AM 77.1°F25.1°C 66.6°F19.2°C 70% 8.3 mph E13.4 kmh E 11.0 mph17.7 kmh 30.03 in1016.9 mb 0.00 in0.0 mm 0.00 in/hr0.0 mm/hr 1.58 in40.1 mm
11:40 AM 78.0°F25.6°C 67.0°F19.4°C 69% 9.9 mph NE15.9 kmh NE 11.0 mph17.7 kmh 30.03 in1016.9 mb 0.00 in0.0 mm 0.00 in/hr0.0 mm/hr 1.58 in40.1 mm
11:50 AM 77.3°F25.2°C 65.9°F18.8°C 68% 9.4 mph E15.1 kmh E 10.0 mph16.1 kmh 30.02 in1016.6 mb 0.00 in0.0 mm 0.00 in/hr0.0 mm/hr 1.58 in40.1 mm
12:00 PM 77.7°F25.4°C 67.1°F19.5°C 70% 4.6 mph NE7.4 kmh NE 13.0 mph20.9 kmh 30.02 in1016.6 mb 0.00 in0.0 mm 0.00 in/hr0.0 mm/hr 1.58 in40.1 mm
12:10 PM 77.6°F25.3°C 66.6°F19.2°C 69% 9.5 mph NE15.3 kmh NE 10.0 mph16.1 kmh 30.02 in1016.6 mb 0.00 in0.0 mm 0.00 in/hr0.0 mm/hr 1.58 in40.1 mm
12:20 PM 77.9°F25.5°C 67.3°F19.6°C 70% 10.3 mph E16.6 kmh E 14.0 mph22.5 kmh 30.01 in1016.3 mb 0.00 in0.0 mm 0.00 in/hr0.0 mm/hr 1.58 in40.1 mm
12:30 PM 78.1°F25.6°C 67.1°F19.5°C 69% 13.6 mph E21.9 kmh E 16.0 mph25.7 kmh 30.02 in1016.6 mb 0.00 in0.0 mm 0.00 in/hr0.0 mm/hr 1.58 in40.1 mm
12:40 PM 77.9°F25.5°C 66.5°F19.2°C 68% 12.2 mph E19.6 kmh E 4.0 mph6.4 kmh 30.01 in1016.3 mb 0.00 in0.0 mm 0.00 in/hr0.0 mm/hr 1.58 in40.1 mm
12:50 PM 77.7°F25.4°C 65.9°F18.8°C 67% 11.2 mph ENE18.0 kmh ENE 13.0 mph20.9 kmh 30.01 in1016.3 mb 0.00 in0.0 mm 0.00 in/hr0.0 mm/hr 1.58 in40.1 mm
01:00 PM 76.8°F24.9°C 66.7°F19.3°C 71% 12.4 mph ENE20.0 kmh ENE 18.0 mph29.0 kmh 30.01 in1016.3 mb 0.00 in0.0 mm 0.00 in/hr0.0 mm/hr 1.58 in40.1 mm
01:10 PM 76.1°F24.5°C 66.0°F18.9°C 71% 8.0 mph ENE12.9 kmh ENE 11.0 mph17.7 kmh 30.01 in1016.3 mb 0.00 in0.0 mm 0.00 in/hr0.0 mm/hr 1.58 in40.1 mm
01:20 PM 74.8°F23.8°C 65.6°F18.7°C 73% 10.7 mph E17.2 kmh E 15.0 mph24.1 kmh 30.00 in1015.9 mb 0.00 in0.0 mm 0.00 in/hr0.0 mm/hr 1.58 in40.1 mm
01:30 PM 74.8°F23.8°C 65.1°F18.4°C 72% 12.9 mph ENE20.8 kmh ENE 16.0 mph25.7 kmh 30.00 in1015.9 mb 0.00 in0.0 mm 0.00 in/hr0.0 mm/hr 1.58 in40.1 mm
01:40 PM 74.9°F23.8°C 65.3°F18.5°C 72% 10.1 mph E16.3 kmh E 11.0 mph17.7 kmh 29.99 in1015.6 mb 0.00 in0.0 mm 0.00 in/hr0.0 mm/hr 1.58 in40.1 mm
01:50 PM 74.9°F23.8°C 64.4°F18.0°C 70% 11.1 mph ENE17.9 kmh ENE 14.0 mph22.5 kmh 29.99 in1015.6 mb 0.00 in0.0 mm 0.00 in/hr0.0 mm/hr 1.58 in40.1 mm
02:00 PM 75.3°F24.1°C 65.7°F18.7°C 72% 8.4 mph E13.5 kmh E 14.0 mph22.5 kmh 29.98 in1015.2 mb 0.00 in0.0 mm 0.00 in/hr0.0 mm/hr 1.58 in40.1 mm
02:10 PM 76.9°F24.9°C 65.5°F18.6°C 68% 8.9 mph E14.3 kmh E 13.0 mph20.9 kmh 29.98 in1015.2 mb 0.00 in0.0 mm 0.00 in/hr0.0 mm/hr 1.58 in40.1 mm
02:20 PM 78.6°F25.9°C 65.8°F18.8°C 65% 7.9 mph E12.7 kmh E 6.0 mph9.7 kmh 29.98 in1015.2 mb 0.00 in0.0 mm 0.00 in/hr0.0 mm/hr 1.58 in40.1 mm
02:30 PM 78.8°F26.0°C 66.1°F18.9°C 65% 11.9 mph E19.2 kmh E 17.0 mph27.4 kmh 29.97 in1014.9 mb 0.00 in0.0 mm 0.00 in/hr0.0 mm/hr 1.58 in40.1 mm
02:40 PM 78.1°F25.6°C 65.8°F18.8°C 66% 12.6 mph ENE20.3 kmh ENE 19.0 mph30.6 kmh 29.97 in1014.9 mb 0.00 in0.0 mm 0.00 in/hr0.0 mm/hr 1.58 in40.1 mm
02:50 PM 77.7°F25.4°C 65.4°F18.6°C 66% 10.9 mph ENE17.5 kmh ENE 16.0 mph25.7 kmh 29.96 in1014.6 mb 0.00 in0.0 mm 0.00 in/hr0.0 mm/hr 1.58 in40.1 mm
03:00 PM 78.1°F25.6°C 66.2°F19.0°C 67% 11.7 mph NE18.8 kmh NE 17.0 mph27.4 kmh 29.96 in1014.6 mb 0.00 in0.0 mm 0.00 in/hr0.0 mm/hr 1.58 in40.1 mm
03:10 PM 78.2°F25.7°C 67.6°F19.8°C 70% 13.5 mph ENE21.7 kmh ENE 27.0 mph43.5 kmh 29.96 in1014.6 mb 0.00 in0.0 mm 0.00 in/hr0.0 mm/hr 1.58 in40.1 mm
03:20 PM 77.2°F25.1°C 67.8°F19.9°C 73% 11.7 mph ENE18.8 kmh ENE 17.0 mph27.4 kmh 29.96 in1014.6 mb 0.00 in0.0 mm 0.00 in/hr0.0 mm/hr 1.58 in40.1 mm
03:30 PM 75.6°F24.2°C 67.5°F19.7°C 76% 11.2 mph E18.0 kmh E 17.0 mph27.4 kmh 29.97 in1014.9 mb 0.00 in0.0 mm 0.00 in/hr0.0 mm/hr 1.58 in40.1 mm
03:40 PM 74.4°F23.6°C 66.7°F19.3°C 77% 9.8 mph ENE15.8 kmh ENE 10.0 mph16.1 kmh 29.97 in1014.9 mb 0.00 in0.0 mm 0.00 in/hr0.0 mm/hr 1.58 in40.1 mm
03:50 PM 74.1°F23.4°C 66.1°F18.9°C 76% 13.2 mph E21.2 kmh E 18.0 mph29.0 kmh 29.97 in1014.9 mb 0.00 in0.0 mm 0.00 in/hr0.0 mm/hr 1.58 in40.1 mm
04:00 PM 74.9°F23.8°C 67.2°F19.6°C 77% 14.0 mph NE22.5 kmh NE 13.0 mph20.9 kmh 29.96 in1014.6 mb 0.00 in0.0 mm 0.00 in/hr0.0 mm/hr 1.58 in40.1 mm
04:10 PM 73.8°F23.2°C 66.5°F19.2°C 78% 14.8 mph ENE23.8 kmh ENE 23.0 mph37.0 kmh 29.97 in1014.9 mb 0.00 in0.0 mm 0.00 in/hr0.0 mm/hr 1.58 in40.1 mm
04:20 PM 71.5°F21.9°C 66.1°F18.9°C 83% 12.0 mph E19.3 kmh E 15.0 mph24.1 kmh 29.97 in1014.9 mb 0.00 in0.0 mm 0.00 in/hr0.0 mm/hr 1.58 in40.1 mm
04:30 PM 70.8°F21.6°C 65.7°F18.7°C 84% 9.9 mph ENE15.9 kmh ENE 18.0 mph29.0 kmh 29.97 in1014.9 mb 0.01 in0.3 mm 0.06 in/hr1.5 mm/hr 1.59 in40.4 mm
04:40 PM 70.6°F21.4°C 66.6°F19.2°C 87% 10.3 mph ENE16.6 kmh ENE 13.0 mph20.9 kmh 29.98 in1015.2 mb 0.00 in0.0 mm 0.00 in/hr0.0 mm/hr 1.59 in40.4 mm
04:50 PM 71.7°F22.1°C 65.9°F18.8°C 82% 9.4 mph E15.1 kmh E 12.0 mph19.3 kmh 29.98 in1015.2 mb 0.00 in0.0 mm 0.00 in/hr0.0 mm/hr 1.59 in40.4 mm
05:00 PM 72.1°F22.3°C 66.6°F19.2°C 83% 8.3 mph NE13.4 kmh NE 14.0 mph22.5 kmh 29.98 in1015.2 mb 0.00 in0.0 mm 0.00 in/hr0.0 mm/hr 1.59 in40.4 mm
05:10 PM 71.6°F22.0°C 65.4°F18.6°C 81% 10.4 mph NE16.7 kmh NE 14.0 mph22.5 kmh 29.98 in1015.2 mb 0.00 in0.0 mm 0.00 in/hr0.0 mm/hr 1.59 in40.4 mm
05:20 PM 70.6°F21.4°C 65.1°F18.4°C 83% 10.0 mph E16.1 kmh E 13.0 mph20.9 kmh 29.98 in1015.2 mb 0.00 in0.0 mm 0.00 in/hr0.0 mm/hr 1.59 in40.4 mm
05:30 PM 69.7°F20.9°C 64.3°F17.9°C 83% 9.4 mph E15.1 kmh E 11.0 mph17.7 kmh 29.98 in1015.2 mb 0.00 in0.0 mm 0.00 in/hr0.0 mm/hr 1.59 in40.4 mm
05:40 PM 69.6°F20.9°C 64.2°F17.9°C 83% 8.8 mph E14.2 kmh E 13.0 mph20.9 kmh 29.98 in1015.2 mb 0.00 in0.0 mm 0.00 in/hr0.0 mm/hr 1.59 in40.4 mm
05:50 PM 69.2°F20.7°C 63.8°F17.7°C 83% 11.0 mph E17.7 kmh E 17.0 mph27.4 kmh 29.99 in1015.6 mb 0.00 in0.0 mm 0.00 in/hr0.0 mm/hr 1.59 in40.4 mm
06:00 PM 69.0°F20.6°C 63.6°F17.6°C 83% 6.5 mph ENE10.5 kmh ENE 9.0 mph14.5 kmh 29.98 in1015.2 mb 0.00 in0.0 mm 0.00 in/hr0.0 mm/hr 1.59 in40.4 mm
06:10 PM 68.6°F20.3°C 63.6°F17.6°C 84% 7.3 mph ENE11.7 kmh ENE 10.0 mph16.1 kmh 29.98 in1015.2 mb 0.00 in0.0 mm 0.00 in/hr0.0 mm/hr 1.59 in40.4 mm
06:20 PM 68.2°F20.1°C 63.5°F17.5°C 85% 7.5 mph E12.1 kmh E 13.0 mph20.9 kmh 29.98 in1015.2 mb 0.00 in0.0 mm 0.00 in/hr0.0 mm/hr 1.59 in40.4 mm
06:30 PM 68.0°F20.0°C 62.3°F16.8°C 82% 7.2 mph E11.6 kmh E 13.0 mph20.9 kmh 29.98 in1015.2 mb 0.00 in0.0 mm 0.00 in/hr0.0 mm/hr 1.59 in40.4 mm
06:40 PM 67.9°F19.9°C 62.2°F16.8°C 82% 6.7 mph E10.8 kmh E 10.0 mph16.1 kmh 29.99 in1015.6 mb 0.00 in0.0 mm 0.00 in/hr0.0 mm/hr 1.59 in40.4 mm
06:50 PM 67.6°F19.8°C 62.6°F17.0°C 84% 9.3 mph ENE15.0 kmh ENE 14.0 mph22.5 kmh 29.99 in1015.6 mb 0.00 in0.0 mm 0.00 in/hr0.0 mm/hr 1.59 in40.4 mm
07:00 PM 67.2°F19.6°C 62.9°F17.2°C 86% 6.8 mph ENE10.9 kmh ENE 12.0 mph19.3 kmh 30.00 in1015.9 mb 0.00 in0.0 mm 0.00 in/hr0.0 mm/hr 1.59 in40.4 mm
07:10 PM 66.8°F19.3°C 62.5°F16.9°C 86% 7.9 mph E12.7 kmh E 16.0 mph25.7 kmh 30.00 in1015.9 mb 0.00 in0.0 mm 0.00 in/hr0.0 mm/hr 1.59 in40.4 mm
07:20 PM 66.7°F19.3°C 62.7°F17.1°C 87% 6.4 mph ENE10.3 kmh ENE 8.0 mph12.9 kmh 30.00 in1015.9 mb 0.00 in0.0 mm 0.00 in/hr0.0 mm/hr 1.59 in40.4 mm
07:30 PM 66.5°F19.2°C 62.8°F17.1°C 88% 5.9 mph E9.5 kmh E 11.0 mph17.7 kmh 30.00 in1015.9 mb 0.00 in0.0 mm 0.00 in/hr0.0 mm/hr 1.59 in40.4 mm
07:40 PM 66.3°F19.1°C 62.7°F17.1°C 88% 6.2 mph ENE10.0 kmh ENE 10.0 mph16.1 kmh 30.00 in1015.9 mb 0.00 in0.0 mm 0.00 in/hr0.0 mm/hr 1.59 in40.4 mm
07:50 PM 66.4°F19.1°C 62.4°F16.9°C 87% 9.8 mph ENE15.8 kmh ENE 13.0 mph20.9 kmh 30.00 in1015.9 mb 0.00 in0.0 mm 0.00 in/hr0.0 mm/hr 1.59 in40.4 mm
08:00 PM 66.3°F19.1°C 62.3°F16.8°C 87% 7.9 mph E12.7 kmh E 12.0 mph19.3 kmh 30.00 in1015.9 mb 0.00 in0.0 mm 0.00 in/hr0.0 mm/hr 1.59 in40.4 mm
08:10 PM 66.3°F19.1°C 62.3°F16.8°C 87% 6.3 mph E10.1 kmh E 7.0 mph11.3 kmh 30.01 in1016.3 mb 0.00 in0.0 mm 0.00 in/hr0.0 mm/hr 1.59 in40.4 mm
08:20 PM 66.4°F19.1°C 62.4°F16.9°C 87% 11.6 mph E18.7 kmh E 15.0 mph24.1 kmh 30.00 in1015.9 mb 0.00 in0.0 mm 0.00 in/hr0.0 mm/hr 1.59 in40.4 mm
08:30 PM 66.5°F19.2°C 62.5°F16.9°C 87% 6.8 mph E10.9 kmh E 14.0 mph22.5 kmh 30.01 in1016.3 mb 0.00 in0.0 mm 0.00 in/hr0.0 mm/hr 1.59 in40.4 mm
08:40 PM 66.5°F19.2°C 62.8°F17.1°C 88% 9.7 mph ENE15.6 kmh ENE 15.0 mph24.1 kmh 30.01 in1016.3 mb 0.00 in0.0 mm 0.00 in/hr0.0 mm/hr 1.59 in40.4 mm
08:50 PM 66.2°F19.0°C 62.5°F16.9°C 88% 9.0 mph E14.5 kmh E 15.0 mph24.1 kmh 30.02 in1016.6 mb 0.00 in0.0 mm 0.00 in/hr0.0 mm/hr 1.59 in40.4 mm
09:00 PM 65.9°F18.8°C 62.6°F17.0°C 89% 10.5 mph ENE16.9 kmh ENE 16.0 mph25.7 kmh 30.01 in1016.3 mb 0.00 in0.0 mm 0.00 in/hr0.0 mm/hr 1.59 in40.4 mm
09:10 PM 65.7°F18.7°C 62.0°F16.7°C 88% 6.5 mph E10.5 kmh E 17.0 mph27.4 kmh 30.01 in1016.3 mb 0.00 in0.0 mm 0.00 in/hr0.0 mm/hr 1.59 in40.4 mm
09:20 PM 65.8°F18.8°C 62.1°F16.7°C 88% 11.7 mph E18.8 kmh E 17.0 mph27.4 kmh 30.01 in1016.3 mb 0.00 in0.0 mm 0.00 in/hr0.0 mm/hr 1.59 in40.4 mm
09:30 PM 65.8°F18.8°C 61.8°F16.6°C 87% 6.0 mph E9.7 kmh E 11.0 mph17.7 kmh 30.02 in1016.6 mb 0.00 in0.0 mm 0.00 in/hr0.0 mm/hr 1.59 in40.4 mm
09:40 PM 65.9°F18.8°C 62.2°F16.8°C 88% 6.4 mph E10.3 kmh E 9.0 mph14.5 kmh 30.02 in1016.6 mb 0.00 in0.0 mm 0.00 in/hr0.0 mm/hr 1.59 in40.4 mm
09:50 PM 65.9°F18.8°C 61.9°F16.6°C 87% 9.1 mph E14.6 kmh E 11.0 mph17.7 kmh 30.02 in1016.6 mb 0.00 in0.0 mm 0.00 in/hr0.0 mm/hr 1.59 in40.4 mm
10:00 PM 65.9°F18.8°C 61.3°F16.3°C 85% 8.8 mph E14.2 kmh E 13.0 mph20.9 kmh 30.02 in1016.6 mb 0.00 in0.0 mm 0.00 in/hr0.0 mm/hr 1.59 in40.4 mm
10:10 PM 65.9°F18.8°C 61.3°F16.3°C 85% 6.4 mph ENE10.3 kmh ENE 9.0 mph14.5 kmh 30.02 in1016.6 mb 0.00 in0.0 mm 0.00 in/hr0.0 mm/hr 1.59 in40.4 mm
10:20 PM 65.8°F18.8°C 61.8°F16.6°C 87% 7.1 mph ENE11.4 kmh ENE 9.0 mph14.5 kmh 30.01 in1016.3 mb 0.00 in0.0 mm 0.00 in/hr0.0 mm/hr 1.59 in40.4 mm
10:30 PM 65.6°F18.7°C 61.3°F16.3°C 86% 8.6 mph NE13.8 kmh NE 9.0 mph14.5 kmh 30.02 in1016.6 mb 0.00 in0.0 mm 0.00 in/hr0.0 mm/hr 1.59 in40.4 mm
10:40 PM 65.7°F18.7°C 60.7°F15.9°C 84% 5.8 mph E9.3 kmh E 8.0 mph12.9 kmh 30.02 in1016.6 mb 0.00 in0.0 mm 0.00 in/hr0.0 mm/hr 1.59 in40.4 mm
10:50 PM 65.5°F18.6°C 61.2°F16.2°C 86% 7.9 mph NE12.7 kmh NE 14.0 mph22.5 kmh 30.02 in1016.6 mb 0.00 in0.0 mm 0.00 in/hr0.0 mm/hr 1.59 in40.4 mm
11:00 PM 65.4°F18.6°C 61.4°F16.3°C 87% 4.9 mph ENE7.9 kmh ENE 10.0 mph16.1 kmh 30.02 in1016.6 mb 0.00 in0.0 mm 0.00 in/hr0.0 mm/hr 1.59 in40.4 mm
11:10 PM 65.3°F18.5°C 61.3°F16.3°C 87% 10.9 mph E17.5 kmh E 14.0 mph22.5 kmh 30.01 in1016.3 mb 0.00 in0.0 mm 0.00 in/hr0.0 mm/hr 1.59 in40.4 mm
11:20 PM 65.2°F18.4°C 60.9°F16.1°C 86% 7.0 mph ENE11.3 kmh ENE 11.0 mph17.7 kmh 30.01 in1016.3 mb 0.00 in0.0 mm 0.00 in/hr0.0 mm/hr 1.59 in40.4 mm
11:30 PM 65.3°F18.5°C 60.0°F15.6°C 83% 4.0 mph NE6.4 kmh NE 12.0 mph19.3 kmh 30.01 in1016.3 mb 0.00 in0.0 mm 0.00 in/hr0.0 mm/hr 1.59 in40.4 mm
11:40 PM 65.5°F18.6°C 60.5°F15.8°C 84% 8.4 mph ENE13.5 kmh ENE 14.0 mph22.5 kmh 30.01 in1016.3 mb 0.00 in0.0 mm 0.00 in/hr0.0 mm/hr 1.59 in40.4 mm
11:50 PM 65.4°F18.6°C 61.1°F16.2°C 86% 8.4 mph ENE13.5 kmh ENE 12.0 mph19.3 kmh 30.01 in1016.3 mb 0.00 in0.0 mm 0.00 in/hr0.0 mm/hr 1.59 in40.4 mm